Flight Track Log - Related Links

Times and Time Zones

All times are in EDT time to prevent confusion due to time zone crossing. See the EGF2878 flight status page for this flight to view local times or setup timezone preferences in your user account.

Time Position Orientation Groundspeed Altitude Reporting Facility
EDT Latitude Longitude Course Direction KTS MPH feet Rate Location/Type
Mon 10:23:17 AM 39.1000 -108.5000 157° South 174 200 6,300  Level Denver TRACON
Mon 10:24:06 AM 39.0506 -108.4731 162° South 196 226 7,600 1,817 Climbing Denver Center
Mon 10:25:06 AM 38.9967 -108.4500 158° South 186 214 9,600 1,563 Climbing Denver Center
Mon 10:26:05 AM 38.9306 -108.4161 118° Southeast 235 270 10,700 1,563 Climbing Denver Center
Mon 10:27:05 AM 38.8864 -108.3108 111° Southeast 278 320 12,700 2,033 Climbing Denver Center
Mon 10:28:06 AM 38.8569 -108.2114 109° East 299 344 14,800 1,785 Climbing Denver Center
Mon 10:29:06 AM 38.8311 -108.1175 114° Southeast 307 353 16,300 1,462 Climbing Denver Center
Mon 10:30:05 AM 38.7931 -108.0100 113° Southeast 314 361 17,700 1,500 Climbing Denver Center
Mon 10:31:06 AM 38.7528 -107.8894 115° Southeast 324 373 19,300 1,537 Climbing Denver Center
Mon 10:32:06 AM 38.7125 -107.7769 113° Southeast 336 387 20,800 1,450 Climbing Denver Center
Mon 10:33:06 AM 38.6783 -107.6725 114° Southeast 341 392 22,200 1,450 Climbing Denver Center
Mon 10:34:06 AM 38.6397 -107.5603 114° Southeast 347 399 23,700 1,563 Climbing Denver Center
Mon 10:35:05 AM 38.5969 -107.4347 111° Southeast 342 394 25,300 1,300 Climbing Denver Center
Mon 10:36:06 AM 38.5606 -107.3147 112° Southeast 348 400 26,300 992 Climbing Denver Center
Mon 10:37:06 AM 38.5258 -107.2028 113° Southeast 366 421 27,300 1,100 Climbing Denver Center
Mon 10:38:06 AM 38.4808 -107.0672 128° Southeast 377 434 28,500 1,150 Climbing Denver Center
Mon 10:39:06 AM 38.4144 -106.9606 141° Southeast 383 441 29,600 1,250 Climbing Denver Center
Mon 10:40:06 AM 38.3314 -106.8753 142° Southeast 378 435 31,000 1,350 Climbing Denver Center
Mon 10:41:06 AM 38.2608 -106.8061 139° Southeast 372 428 32,300 1,300 Climbing Denver Center
Mon 10:42:06 AM 38.1736 -106.7106 138° Southeast 372 428 33,600 1,200 Climbing Denver Center
Mon 10:43:06 AM 38.1008 -106.6261 138° Southeast 366 421 34,700 850 Climbing Denver Center
Mon 10:44:06 AM 38.0258 -106.5417 139° Southeast 360 414 35,300 850 Climbing Denver Center
Mon 10:45:06 AM 37.9508 -106.4600 138° Southeast 360 414 36,400 850 Climbing Denver Center
Mon 10:46:06 AM 37.8778 -106.3758 137° Southeast 360 414 37,000 300 Climbing Denver Center
Mon 10:47:06 AM 37.8067 -106.2917 138° Southeast 376 433 37,000  Level Denver Center
Mon 10:48:06 AM 37.7233 -106.1975 138° Southeast 381 438 37,000  Level Denver Center
Mon 10:49:06 AM 37.6439 -106.1086 147° Southeast 378 435 37,000  Level Denver Center
Mon 10:50:06 AM 37.5622 -106.0411 141° Southeast 405 466 37,000  Level Denver Center
Mon 10:51:06 AM 37.4575 -105.9344 142° Southeast 425 489 37,000  Level Denver Center
Mon 10:52:06 AM 37.3528 -105.8308 142° Southeast 437 503 37,000  Level Denver Center
Mon 10:53:06 AM 37.2586 -105.7378 114° Southeast 437 503 37,000 36 Level Denver Center
Mon 10:54:53 AM 37.1722 -105.4925 103° East 426 490 37,100 36 Climbing Albuquerque Center
Mon 10:55:53 AM 37.1494 -105.3706 115° Southeast 408 470 37,100  Level Albuquerque Center
Mon 10:56:53 AM 37.0969 -105.2314 120° Southeast 403 464 37,100 -50 Level Albuquerque Center
Mon 10:57:53 AM 37.0383 -105.1056 122° Southeast 398 458 37,000 -50 Descending Albuquerque Center
Mon 10:58:53 AM 36.9775 -104.9825 125° Southeast 411 473 37,000  Level Albuquerque Center
Mon 10:59:53 AM 36.9169 -104.8728 126° Southeast 417 480 37,000  Level Albuquerque Center
Mon 11:00:53 AM 36.8389 -104.7375 125° Southeast 431 496 37,000  Level Albuquerque Center
Mon 11:01:54 AM 36.7672 -104.6078 125° Southeast 443 510 37,000  Level Albuquerque Center
Mon 11:02:53 AM 36.7019 -104.4908 125° Southeast 454 522 37,000  Level Albuquerque Center
Mon 11:03:53 AM 36.6300 -104.3617 121° Southeast 462 532 37,000  Level Albuquerque Center
Mon 11:04:53 AM 36.5572 -104.2092 120° Southeast 462 532 37,000  Level Albuquerque Center
Mon 11:05:54 AM 36.4928 -104.0697 120° Southeast 467 537 37,000  Level Albuquerque Center
Mon 11:06:53 AM 36.4353 -103.9483 119° Southeast 456 525 37,000  Level Albuquerque Center
Mon 11:07:53 AM 36.3683 -103.7964 119° Southeast 458 527 37,000  Level Albuquerque Center
Mon 11:08:54 AM 36.3078 -103.6600 118° Southeast 458 527 37,000  Level Albuquerque Center
Mon 11:09:53 AM 36.2447 -103.5136 119° Southeast 464 534 37,000  Level Albuquerque Center
Mon 11:10:53 AM 36.1839 -103.3750 119° Southeast 464 534 37,000  Level Albuquerque Center
Mon 11:11:53 AM 36.1275 -103.2467 119° Southeast 469 540 37,000  Level Albuquerque Center
Mon 11:12:53 AM 36.0642 -103.1061 119° Southeast 470 541 37,000  Level Albuquerque Center
Mon 11:13:53 AM 36.0006 -102.9631 121° Southeast 470 541 37,000  Level Albuquerque Center
Mon 11:14:53 AM 35.9347 -102.8256 119° Southeast 470 541 37,000  Level Albuquerque Center
Mon 11:15:53 AM 35.8733 -102.6908 119° Southeast 465 535 37,000  Level Albuquerque Center
Mon 11:16:53 AM 35.8117 -102.5536 118° Southeast 465 535 37,000  Level Albuquerque Center
Mon 11:17:53 AM 35.7517 -102.4164 119° Southeast 460 529 37,000  Level Albuquerque Center
Mon 11:18:53 AM 35.6897 -102.2794 118° Southeast 455 524 37,000  Level Albuquerque Center
Mon 11:19:53 AM 35.6294 -102.1403 118° Southeast 455 524 37,000  Level Albuquerque Center
Mon 11:20:53 AM 35.5711 -102.0036 117° Southeast 449 517 37,000  Level Albuquerque Center
Mon 11:21:53 AM 35.5078 -101.8497 118° Southeast 458 527 37,000  Level Albuquerque Center
Mon 11:22:53 AM 35.4469 -101.7083 120° Southeast 465 535 37,000  Level Albuquerque Center
Mon 11:23:53 AM 35.3864 -101.5778 117° Southeast 470 541 37,000  Level Albuquerque Center
Mon 11:24:53 AM 35.3272 -101.4342 117° Southeast 470 541 37,000  Level Albuquerque Center
Mon 11:25:53 AM 35.2633 -101.2811 117° Southeast 457 526 37,000  Level Albuquerque Center
Mon 11:26:53 AM 35.2039 -101.1408 116° Southeast 457 526 37,000  Level Albuquerque Center
Mon 11:27:53 AM 35.1464 -100.9978 117° Southeast 463 533 37,000  Level Albuquerque Center
Mon 11:28:53 AM 35.0886 -100.8578 117° Southeast 463 533 37,000  Level Albuquerque Center
Mon 11:30:43 AM 34.9858 -100.6092 116° Southeast 476 548 37,000  Level Fort Worth Center
Mon 11:31:44 AM 34.9308 -100.4703 117° Southeast 476 548 37,000  Level Fort Worth Center
Mon 11:32:43 AM 34.8717 -100.3289 116° Southeast 470 541 37,000  Level Fort Worth Center
Mon 11:33:43 AM 34.8122 -100.1828 116° Southeast 470 541 37,000  Level Fort Worth Center
Mon 11:34:43 AM 34.7531 -100.0342 117° Southeast 470 541 37,000  Level Fort Worth Center
Mon 11:35:43 AM 34.6933 -99.8936 116° Southeast 475 547 37,000  Level Fort Worth Center
Mon 11:36:43 AM 34.6336 -99.7481 115° Southeast 481 554 37,000  Level Fort Worth Center
Mon 11:37:44 AM 34.5756 -99.5975 117° Southeast 481 554 37,000  Level Fort Worth Center
Mon 11:38:43 AM 34.5156 -99.4575 118° Southeast 481 554 37,000  Level Fort Worth Center
Mon 11:39:43 AM 34.4531 -99.3150 117° Southeast 481 554 37,000  Level Fort Worth Center
Mon 11:40:43 AM 34.3925 -99.1703 124° Southeast 481 554 37,000 -800 Level Fort Worth Center
Mon 11:41:43 AM 34.3192 -99.0378 130° Southeast 481 554 35,400 -2,200 Descending Fort Worth Center
Mon 11:42:43 AM 34.2353 -98.9183 132° Southeast 475 547 32,600 -2,727 Descending Fort Worth Center
Mon 11:43:44 AM 34.1469 -98.8014 126° Southeast 470 541 29,900 -2,800 Descending Fort Worth Center
Mon 11:44:43 AM 34.0586 -98.6569 129° Southeast 470 541 27,000 -2,773 Descending Fort Worth Center
Mon 11:45:43 AM 33.9764 -98.5356 128° Southeast 478 550 24,400 -2,050 Descending Fort Worth Center
Mon 11:46:43 AM 33.8981 -98.4144 124° Southeast 471 542 22,900 -2,100 Descending Fort Worth Center
Mon 11:47:43 AM 33.8281 -98.2886 124° Southeast 463 533 20,200 -2,750 Descending Fort Worth Center
Mon 11:48:43 AM 33.7600 -98.1681 124° Southeast 444 511 17,400 -2,800 Descending Fort Worth Center
Mon 11:49:43 AM 33.6958 -98.0525 128° Southeast 436 502 14,600 -2,750 Descending Fort Worth Center
Mon 11:50:43 AM 33.6233 -97.9397 128° Southeast 425 489 11,900 -1,831 Descending Fort Worth Center
Mon 11:51:41 AM 33.5611 -97.8442 129° Southeast 386 444 11,000 -545 Descending FAA TRACON SMA TRACON (SMA)
Mon 11:52:22 AM 33.5203 -97.7839 136° Southeast 378 435 11,000  Level FAA TRACON SMA TRACON (SMA)
Mon 11:53:02 AM 33.4692 -97.7242 138° Southeast 367 422 11,000  Level FAA TRACON SMA TRACON (SMA)
Mon 11:53:41 AM 33.4233 -97.6750 137° Southeast 310 357 11,000 -532 Level FAA TRACON SMA TRACON (SMA)
Mon 11:54:21 AM 33.3833 -97.6306 137° Southeast 303 349 10,300 -1,275 Descending FAA TRACON SMA TRACON (SMA)
Mon 11:55:01 AM 33.3419 -97.5850 132° Southeast 300 345 9,300 -1,537 Descending FAA TRACON SMA TRACON (SMA)
Mon 11:55:43 AM 33.3033 -97.5342 128° Southeast 288 331 8,200 -1,556 Descending FAA TRACON SMA TRACON (SMA)
Mon 11:56:22 AM 33.2706 -97.4847 127° Southeast 284 327 7,200 -1,538 Descending FAA TRACON SMA TRACON (SMA)
Mon 11:57:01 AM 33.2408 -97.4375 131° Southeast 277 319 6,200 -1,367 Descending FAA TRACON SMA TRACON (SMA)
Mon 11:57:41 AM 33.2078 -97.3914 140° Southeast 275 316 5,400 -900 Descending FAA TRACON SMA TRACON (SMA)
Mon 11:58:21 AM 33.1736 -97.3569 139° Southeast 261 300 5,000 -300 Descending FAA TRACON SMA TRACON (SMA)
Mon 11:59:01 AM 33.1358 -97.3175 138° Southeast 259 298 5,000  Level FAA TRACON SMA TRACON (SMA)
Mon 11:59:42 AM 33.1011 -97.2803 140° Southeast 260 299 5,000 -444 Level FAA TRACON SMA TRACON (SMA)
Mon 12:00:22 PM 33.0586 -97.2378 138° Southeast 269 310 4,400 -1,139 Descending FAA TRACON SMA TRACON (SMA)
Mon 12:01:01 PM 33.0250 -97.2011 138° Southeast 254 292 3,500 -1,385 Descending FAA TRACON SMA TRACON (SMA)

Login

Don't have an account? Register now (free) for customized features, flight alerts, and more!